createdAt,value
2022-12-03T00:01:20.442Z,39.37
2022-12-03T00:03:47.472Z,37.13
2022-12-03T00:06:14.603Z,34.90
2022-12-03T00:08:41.418Z,36.83
2022-12-03T00:11:08.356Z,36.93
2022-12-03T00:13:37.401Z,36.50
2022-12-03T00:16:04.877Z,38.17
2022-12-03T00:18:31.954Z,36.70
2022-12-03T00:20:58.876Z,43.63
2022-12-03T00:23:28.113Z,46.30
2022-12-03T00:25:55.041Z,43.30
2022-12-03T00:28:21.961Z,37.83
2022-12-03T00:30:54.213Z,39.57
2022-12-03T00:33:24.088Z,38.80
2022-12-03T00:35:55.826Z,38.30
2022-12-03T00:38:22.852Z,42.03
2022-12-03T00:40:51.981Z,41.80
2022-12-03T00:43:21.641Z,37.00
2022-12-03T00:45:48.552Z,43.90
2022-12-03T00:48:15.496Z,38.20
2022-12-03T00:50:42.482Z,40.13
2022-12-03T00:53:12.026Z,47.57
2022-12-03T00:55:41.055Z,37.00
2022-12-03T00:58:10.946Z,42.57
2022-12-03T01:00:40.262Z,36.93
2022-12-03T01:03:07.208Z,36.73
2022-12-03T01:05:36.667Z,42.83
2022-12-03T01:08:03.796Z,42.00
2022-12-03T01:10:33.356Z,40.63
2022-12-03T01:13:02.928Z,44.10
2022-12-03T01:15:31.936Z,41.60
2022-12-03T01:18:01.037Z,38.43
2022-12-03T01:20:30.224Z,45.43
2022-12-03T01:22:57.199Z,42.80
2022-12-03T01:25:24.249Z,44.93
2022-12-03T01:27:51.216Z,43.23
2022-12-03T01:32:47.637Z,40.30
2022-12-03T01:35:17.072Z,43.17
2022-12-03T01:37:46.116Z,42.23
2022-12-03T01:40:21.105Z,46.80
2022-12-03T01:42:51.168Z,46.70
2022-12-03T01:45:23.984Z,43.43
2022-12-03T01:47:55.998Z,39.33
2022-12-03T01:50:30.933Z,44.23
2022-12-03T01:53:02.021Z,42.43
2022-12-03T01:55:29.498Z,48.17
2022-12-03T01:58:00.180Z,39.60
2022-12-03T02:00:30.732Z,40.30
2022-12-03T02:03:07.946Z,36.83
2022-12-03T02:05:34.983Z,50.10
2022-12-03T02:08:02.217Z,45.57
2022-12-03T02:10:35.094Z,42.23
2022-12-03T02:13:08.890Z,46.00
2022-12-03T02:15:39.462Z,45.50
2022-12-03T02:18:08.442Z,40.20
2022-12-03T02:20:49.214Z,38.50
2022-12-03T02:23:37.656Z,49.50
2022-12-03T02:26:04.761Z,39.33
2022-12-03T02:28:34.367Z,41.83
2022-12-03T02:31:05.430Z,40.07
2022-12-03T02:33:33.211Z,44.40
2022-12-03T02:36:06.304Z,46.33
2022-12-03T02:38:35.831Z,42.50
2022-12-03T02:41:33.525Z,46.70
2022-12-03T02:44:00.809Z,46.27
2022-12-03T02:46:30.271Z,46.37
2022-12-03T02:48:57.810Z,39.43
2022-12-03T02:51:27.214Z,45.57
2022-12-03T02:53:56.339Z,42.00
2022-12-03T02:56:27.787Z,43.20
2022-12-03T02:58:58.828Z,40.10
2022-12-03T03:01:26.222Z,41.90
2022-12-03T03:03:58.509Z,46.90
2022-12-03T03:06:25.998Z,43.50
2022-12-03T03:08:55.393Z,44.33
2022-12-03T03:11:22.397Z,45.77
2022-12-03T03:13:49.447Z,42.20
2022-12-03T03:16:16.633Z,48.20
2022-12-03T03:18:43.672Z,45.93
2022-12-03T03:21:11.788Z,52.67
2022-12-03T03:23:43.328Z,46.53
2022-12-03T03:26:16.706Z,52.13
2022-12-03T03:28:48.248Z,48.07
2022-12-03T03:31:23.179Z,49.37
2022-12-03T03:33:51.147Z,44.37
2022-12-03T03:36:19.951Z,45.50
2022-12-03T03:38:51.794Z,49.07
2022-12-03T03:41:20.945Z,52.03
2022-12-03T03:43:50.145Z,49.50
2022-12-03T03:46:20.518Z,46.50
2022-12-03T03:48:48.756Z,48.03
2022-12-03T03:51:19.473Z,41.00
2022-12-03T03:53:48.616Z,50.70
2022-12-03T03:56:17.991Z,53.20
2022-12-03T03:58:45.003Z,57.23
2022-12-03T04:01:14.457Z,45.83
2022-12-03T04:03:41.737Z,49.53
2022-12-03T04:06:09.197Z,47.90
2022-12-03T04:08:38.707Z,50.43
2022-12-03T04:11:24.422Z,50.17
2022-12-03T04:13:54.256Z,49.70
2022-12-03T04:16:21.269Z,50.83
2022-12-03T04:18:55.515Z,49.30
2022-12-03T04:21:42.873Z,48.47
2022-12-03T04:24:12.540Z,50.40
2022-12-03T04:26:58.020Z,48.83
2022-12-03T04:29:24.969Z,43.30
2022-12-03T04:32:10.824Z,48.40
2022-12-03T04:34:58.622Z,51.87
2022-12-03T04:37:25.968Z,54.60
2022-12-03T04:39:53.111Z,51.33
2022-12-03T04:42:22.257Z,46.97
2022-12-03T04:44:50.465Z,48.97
2022-12-03T04:47:22.369Z,50.07
2022-12-03T04:49:53.981Z,51.60
2022-12-03T04:52:23.759Z,51.43
2022-12-03T04:54:56.054Z,47.60
2022-12-03T04:57:27.906Z,48.33
2022-12-03T04:59:57.820Z,51.87
2022-12-03T05:02:24.933Z,50.83
2022-12-03T05:04:52.246Z,48.73
2022-12-03T05:07:24.497Z,56.30
2022-12-03T05:09:51.436Z,61.33
2022-12-03T05:12:18.320Z,46.73
2022-12-03T05:14:47.883Z,51.63
2022-12-03T05:17:17.413Z,52.33
2022-12-03T05:20:03.212Z,50.43
2022-12-03T05:22:30.090Z,53.20
2022-12-03T05:24:57.251Z,52.10
2022-12-03T05:27:24.482Z,52.80
2022-12-03T05:29:54.268Z,47.37
2022-12-03T05:32:23.564Z,49.40
2022-12-03T05:34:53.343Z,48.57
2022-12-03T05:37:22.421Z,53.03
2022-12-03T05:39:49.504Z,51.20
2022-12-03T05:42:34.764Z,53.03
2022-12-03T05:45:04.285Z,48.97
2022-12-03T05:47:33.636Z,56.43
2022-12-03T05:50:03.308Z,55.97
2022-12-03T05:52:30.331Z,58.90
2022-12-03T05:54:57.346Z,50.63
2022-12-03T05:57:28.778Z,51.03
2022-12-03T05:59:58.931Z,52.57
2022-12-03T06:02:28.246Z,50.17
2022-12-03T06:05:00.153Z,56.87
2022-12-03T06:07:29.223Z,50.67
2022-12-03T06:09:56.241Z,60.40
2022-12-03T06:12:23.310Z,51.60
2022-12-03T06:14:50.529Z,53.03
2022-12-03T06:17:17.698Z,47.83
2022-12-03T06:19:47.300Z,48.13
2022-12-03T06:22:14.462Z,49.43
2022-12-03T06:24:44.525Z,50.93
2022-12-03T06:27:11.856Z,45.77
2022-12-03T06:29:38.923Z,48.10
2022-12-03T06:32:06.202Z,52.93
2022-12-03T06:34:33.352Z,54.00
2022-12-03T06:37:02.776Z,58.00
2022-12-03T06:39:29.893Z,50.20
2022-12-03T06:41:59.274Z,49.90
2022-12-03T06:44:26.313Z,45.60
2022-12-03T06:46:53.437Z,49.07
2022-12-03T06:49:21.197Z,55.60
2022-12-03T06:51:48.205Z,57.27
2022-12-03T06:54:15.169Z,50.53
2022-12-03T06:56:45.396Z,53.10
2022-12-03T06:59:12.837Z,56.93
2022-12-03T07:01:44.587Z,58.67
2022-12-03T07:04:11.590Z,53.33
2022-12-03T07:06:38.610Z,60.57
2022-12-03T07:09:07.644Z,52.27
2022-12-03T07:11:40.427Z,55.73
2022-12-03T07:14:11.185Z,50.90
2022-12-03T07:16:43.653Z,47.83
2022-12-03T07:19:13.721Z,49.37
2022-12-03T07:21:40.750Z,49.30
2022-12-03T07:24:07.894Z,51.97
2022-12-03T07:26:40.451Z,56.20
2022-12-03T07:29:07.726Z,48.73
2022-12-03T07:31:34.889Z,47.33
2022-12-03T07:34:06.392Z,49.93
2022-12-03T07:36:35.571Z,53.20
2022-12-03T07:39:02.597Z,60.70
2022-12-03T07:41:29.608Z,56.63
2022-12-03T07:43:59.157Z,50.70
2022-12-03T07:46:28.408Z,49.30
2022-12-03T07:48:57.715Z,60.77
2022-12-03T07:51:31.967Z,56.20
2022-12-03T07:53:59.352Z,51.73
2022-12-03T07:56:26.434Z,48.97
2022-12-03T07:58:55.524Z,52.70
2022-12-03T08:01:22.540Z,49.60
2022-12-03T08:03:49.439Z,49.13
2022-12-03T08:06:16.519Z,49.33
2022-12-03T08:08:43.772Z,46.60
2022-12-03T08:11:17.007Z,45.57
2022-12-03T08:13:46.649Z,46.37
2022-12-03T08:16:21.033Z,48.20
2022-12-03T08:18:49.569Z,54.87
2022-12-03T08:21:21.833Z,44.63
2022-12-03T08:23:51.421Z,50.83
2022-12-03T08:26:25.580Z,45.70
2022-12-03T08:28:57.467Z,47.30
2022-12-03T08:31:32.291Z,44.93
2022-12-03T08:34:20.682Z,48.60
2022-12-03T08:36:51.177Z,51.60
2022-12-03T08:39:27.814Z,44.77
2022-12-03T08:42:21.164Z,50.70
2022-12-03T08:44:48.328Z,50.17
2022-12-03T08:47:24.424Z,51.63
2022-12-03T08:50:11.792Z,54.40
2022-12-03T08:52:40.784Z,50.20
2022-12-03T08:55:40.637Z,50.33
2022-12-03T08:58:23.418Z,47.00
2022-12-03T09:01:06.211Z,49.90
2022-12-03T09:03:36.695Z,43.53
2022-12-03T09:06:06.180Z,48.07
2022-12-03T09:08:33.111Z,54.47
2022-12-03T09:11:01.283Z,52.23
2022-12-03T09:13:30.462Z,44.47
2022-12-03T09:15:57.373Z,50.77
2022-12-03T09:18:27.552Z,53.97
2022-12-03T09:20:57.190Z,44.83
2022-12-03T09:23:24.318Z,42.23
2022-12-03T09:25:51.325Z,44.97
2022-12-03T09:28:18.398Z,48.03
2022-12-03T09:30:45.481Z,57.27
2022-12-03T09:33:14.924Z,53.30
2022-12-03T09:35:41.867Z,49.47
2022-12-03T09:38:08.841Z,43.83
2022-12-03T09:40:38.171Z,50.47
2022-12-03T09:43:08.328Z,53.33
2022-12-03T09:45:37.619Z,53.37
2022-12-03T09:48:07.157Z,51.37
2022-12-03T09:50:44.500Z,47.83
2022-12-03T09:53:18.360Z,51.60
2022-12-03T09:55:49.507Z,44.30
2022-12-03T09:58:23.129Z,45.53
2022-12-03T10:00:54.489Z,45.53
2022-12-03T10:03:29.675Z,46.07
2022-12-03T10:05:59.665Z,49.90
2022-12-03T10:08:33.005Z,52.93
2022-12-03T10:11:00.029Z,46.47
2022-12-03T10:13:30.927Z,55.10
2022-12-03T10:16:00.401Z,52.80
2022-12-03T10:18:39.981Z,49.10
2022-12-03T10:21:37.676Z,54.37
2022-12-03T10:24:34.589Z,51.20
2022-12-03T10:27:34.987Z,58.37
2022-12-03T10:30:08.231Z,51.13
2022-12-03T10:32:45.413Z,48.87
2022-12-03T10:35:37.727Z,56.33
2022-12-03T10:38:06.962Z,51.17
2022-12-03T10:40:39.431Z,46.27
2022-12-03T10:43:19.840Z,51.30
2022-12-03T10:46:01.975Z,54.37
2022-12-03T10:48:32.932Z,52.30
2022-12-03T10:51:21.827Z,57.03
2022-12-03T10:53:52.307Z,52.40
2022-12-03T10:56:25.772Z,50.33
2022-12-03T10:58:56.318Z,53.27
2022-12-03T11:01:26.173Z,51.17
2022-12-03T11:04:02.230Z,59.77
2022-12-03T11:06:33.072Z,55.53
2022-12-03T11:09:03.952Z,54.00
2022-12-03T11:11:35.512Z,57.27
2022-12-03T11:14:04.866Z,52.93
2022-12-03T11:16:41.080Z,56.00
2022-12-03T11:19:13.731Z,60.03
2022-12-03T11:22:05.322Z,51.60
2022-12-03T11:24:37.626Z,52.20
2022-12-03T11:27:04.469Z,53.20
2022-12-03T11:29:57.616Z,55.67
2022-12-03T11:32:45.500Z,54.50
2022-12-03T11:35:16.951Z,56.70
2022-12-03T11:37:43.943Z,61.93
2022-12-03T11:40:19.933Z,49.97
2022-12-03T11:42:48.848Z,52.33
2022-12-03T11:45:30.859Z,54.33
2022-12-03T11:48:24.107Z,53.97
2022-12-03T11:50:53.399Z,53.90
2022-12-03T11:53:26.583Z,46.67
2022-12-03T11:56:13.003Z,54.13
2022-12-03T11:58:43.518Z,53.07
2022-12-03T12:01:10.534Z,52.87
2022-12-03T12:03:54.995Z,51.03
2022-12-03T12:06:26.912Z,43.30
2022-12-03T12:09:00.990Z,46.60
2022-12-03T12:11:33.967Z,50.13
2022-12-03T12:14:12.042Z,55.10
2022-12-03T12:16:55.152Z,52.60
2022-12-03T12:19:42.484Z,52.40
2022-12-03T12:22:18.264Z,51.67
2022-12-03T12:24:51.380Z,55.47
2022-12-03T12:27:21.696Z,49.60
2022-12-03T12:29:56.895Z,54.83
2022-12-03T12:33:08.332Z,61.83
2022-12-03T12:35:37.476Z,48.93
2022-12-03T12:38:07.515Z,57.83
2022-12-03T12:40:43.193Z,44.57
2022-12-03T12:43:27.360Z,47.10
2022-12-03T12:45:58.529Z,41.63
2022-12-03T12:48:31.593Z,45.17
2022-12-03T12:51:18.785Z,47.93
2022-12-03T12:53:46.527Z,52.27
2022-12-03T12:56:31.530Z,59.17
2022-12-03T12:59:12.515Z,55.33
2022-12-03T13:01:41.394Z,52.80
2022-12-03T13:04:23.334Z,48.50
2022-12-03T13:06:57.393Z,52.37
2022-12-03T13:09:26.088Z,54.07
2022-12-03T13:12:04.237Z,55.87
2022-12-03T13:14:39.258Z,54.07
2022-12-03T13:17:26.011Z,49.60
2022-12-03T13:20:05.137Z,59.47
2022-12-03T13:22:34.468Z,49.70
2022-12-03T13:25:58.255Z,55.70
2022-12-03T13:28:21.646Z,51.70
2022-12-03T13:30:48.839Z,51.23
2022-12-03T13:33:26.688Z,57.30
2022-12-03T13:35:57.075Z,49.17
2022-12-03T13:38:26.956Z,52.13
2022-12-03T13:41:02.735Z,48.37
2022-12-03T13:43:32.491Z,52.37
2022-12-03T13:46:00.636Z,53.30
2022-12-03T13:48:35.401Z,55.60
2022-12-03T13:51:27.104Z,56.87
2022-12-03T13:53:57.297Z,56.13
2022-12-03T13:56:33.751Z,54.30
2022-12-03T13:59:01.552Z,55.63
2022-12-03T14:01:31.014Z,50.40
2022-12-03T14:03:57.991Z,53.03
2022-12-03T14:06:27.994Z,52.97
2022-12-03T14:08:57.205Z,59.53
2022-12-03T14:11:44.774Z,58.03
2022-12-03T14:14:12.172Z,51.33
2022-12-03T14:16:41.520Z,57.07
2022-12-03T14:19:08.582Z,55.33
2022-12-03T14:21:38.615Z,51.27
2022-12-03T14:24:06.194Z,55.00
2022-12-03T14:26:33.253Z,51.20
2022-12-03T14:29:03.432Z,56.27
2022-12-03T14:31:33.074Z,60.93
2022-12-03T14:34:00.183Z,62.43
2022-12-03T14:36:30.316Z,55.87
2022-12-03T14:38:57.383Z,73.80
2022-12-03T14:41:45.609Z,53.17
2022-12-03T14:44:17.479Z,54.70
2022-12-03T14:46:47.514Z,68.00
2022-12-03T14:49:14.629Z,67.20
2022-12-03T14:51:41.734Z,57.90
2022-12-03T14:54:11.167Z,54.87
2022-12-03T14:56:38.184Z,62.90
2022-12-03T14:59:07.321Z,64.27
2022-12-03T15:01:34.618Z,66.97
2022-12-03T15:04:04.089Z,59.13
2022-12-03T15:06:33.752Z,53.00
2022-12-03T15:09:00.788Z,56.53
2022-12-03T15:11:27.813Z,58.23
2022-12-03T15:13:54.850Z,54.97
2022-12-03T15:16:22.001Z,51.93
2022-12-03T15:18:48.922Z,57.57
2022-12-03T15:21:16.622Z,58.90
2022-12-03T15:23:46.211Z,58.73
2022-12-03T15:26:13.227Z,61.67
2022-12-03T15:28:44.120Z,54.60
2022-12-03T15:31:16.840Z,55.40
2022-12-03T15:33:48.306Z,55.67
2022-12-03T15:36:19.939Z,51.77
2022-12-03T15:38:46.954Z,62.20
2022-12-03T15:41:29.157Z,52.23
2022-12-03T15:44:04.245Z,59.37
2022-12-03T15:46:33.904Z,56.67
2022-12-03T15:49:01.082Z,61.30
2022-12-03T15:51:28.134Z,54.43
2022-12-03T15:53:55.217Z,51.80
2022-12-03T15:56:22.225Z,55.10
2022-12-03T15:58:49.181Z,52.13
2022-12-03T16:01:18.714Z,58.93
2022-12-03T16:03:45.702Z,62.53
2022-12-03T16:06:14.686Z,54.20
2022-12-03T16:08:44.763Z,57.47
2022-12-03T16:11:11.774Z,57.10
2022-12-03T16:13:41.017Z,57.30
2022-12-03T16:16:10.571Z,54.73
2022-12-03T16:18:37.494Z,60.03
2022-12-03T16:21:04.612Z,62.30
2022-12-03T16:23:31.765Z,50.20
2022-12-03T16:26:01.284Z,59.10
2022-12-03T16:28:28.272Z,60.60
2022-12-03T16:30:55.399Z,49.87
2022-12-03T16:33:27.320Z,59.30
2022-12-03T16:35:57.342Z,60.27
2022-12-03T16:38:24.364Z,54.20
2022-12-03T16:40:51.439Z,55.40
2022-12-03T16:43:18.637Z,54.20
2022-12-03T16:45:56.501Z,53.53
2022-12-03T16:48:25.921Z,56.23
2022-12-03T16:50:56.236Z,65.27
2022-12-03T16:53:25.414Z,53.37
2022-12-03T16:55:52.433Z,53.67
2022-12-03T16:58:21.302Z,55.93
2022-12-03T17:00:49.822Z,63.37
2022-12-03T17:03:20.333Z,57.20
2022-12-03T17:05:47.637Z,57.50
2022-12-03T17:08:15.986Z,57.90
2022-12-03T17:10:44.163Z,55.80
2022-12-03T17:13:12.152Z,54.40
2022-12-03T17:15:42.389Z,57.37
2022-12-03T17:18:09.513Z,59.87
2022-12-03T17:20:37.187Z,55.80
2022-12-03T17:23:04.989Z,51.43
2022-12-03T17:25:32.250Z,57.00
2022-12-03T17:27:59.115Z,68.43
2022-12-03T17:30:26.479Z,59.47
2022-12-03T17:32:53.842Z,57.70
2022-12-03T17:35:20.889Z,62.80
2022-12-03T17:37:50.399Z,53.30
2022-12-03T17:40:19.711Z,61.60
2022-12-03T17:42:51.384Z,58.97
2022-12-03T17:45:18.284Z,59.73
2022-12-03T17:47:47.648Z,53.60
2022-12-03T17:50:14.639Z,56.90
2022-12-03T17:52:41.629Z,57.93
2022-12-03T17:55:14.487Z,62.90
2022-12-03T17:57:52.903Z,64.53
2022-12-03T18:00:20.188Z,66.70
2022-12-03T18:02:47.164Z,62.03
2022-12-03T18:05:14.536Z,59.93
2022-12-03T18:07:44.060Z,56.67
2022-12-03T18:10:11.306Z,61.87
2022-12-03T18:12:38.241Z,67.73
2022-12-03T18:15:10.926Z,58.37
2022-12-03T18:17:37.867Z,67.63
2022-12-03T18:20:06.112Z,66.30
2022-12-03T18:22:36.099Z,72.03
2022-12-03T18:25:06.412Z,62.87
2022-12-03T18:27:36.098Z,61.43
2022-12-03T18:30:06.460Z,62.83
2022-12-03T18:32:33.301Z,63.20
2022-12-03T18:35:01.563Z,61.40
2022-12-03T18:37:34.570Z,64.80
2022-12-03T18:40:02.077Z,63.67
2022-12-03T18:42:32.642Z,60.30
2022-12-03T18:44:59.864Z,58.40
2022-12-03T18:47:31.124Z,66.40
2022-12-03T18:49:58.379Z,63.67
2022-12-03T18:52:25.687Z,67.20
2022-12-03T18:54:53.112Z,58.60
2022-12-03T18:57:20.194Z,57.63
2022-12-03T18:59:47.196Z,62.70
2022-12-03T19:05:09.053Z,63.47
2022-12-03T19:07:36.209Z,70.57
2022-12-03T19:10:04.310Z,73.83
2022-12-03T19:12:34.509Z,69.50
2022-12-03T19:15:05.379Z,71.20
2022-12-03T19:17:32.834Z,68.83
2022-12-03T19:20:01.876Z,70.40
2022-12-03T19:22:28.964Z,74.07
2022-12-03T19:24:55.970Z,64.10
2022-12-03T19:27:25.990Z,72.63
2022-12-03T19:29:53.290Z,70.73
2022-12-03T19:32:25.600Z,71.90
2022-12-03T19:34:55.037Z,69.30
2022-12-03T19:37:21.982Z,68.33
2022-12-03T19:39:53.783Z,63.23
2022-12-03T19:42:21.250Z,71.03
2022-12-03T19:44:48.251Z,71.30
2022-12-03T19:47:15.274Z,75.30
2022-12-03T19:49:42.413Z,66.87
2022-12-03T19:52:11.990Z,66.40
2022-12-03T19:54:41.213Z,64.00
2022-12-03T19:57:13.659Z,62.70
2022-12-03T19:59:43.072Z,68.83
2022-12-03T20:02:15.221Z,61.70
2022-12-03T20:04:42.249Z,71.07
2022-12-03T20:07:09.280Z,55.20
2022-12-03T20:09:36.304Z,59.40
2022-12-03T20:12:06.667Z,64.93
2022-12-03T20:14:38.796Z,59.53
2022-12-03T20:17:05.975Z,56.60
2022-12-03T20:19:33.015Z,61.97
2022-12-03T20:22:02.883Z,56.63
2022-12-03T20:24:32.719Z,54.60
2022-12-03T20:26:59.728Z,60.47
2022-12-03T20:29:26.755Z,54.03
2022-12-03T20:31:56.411Z,56.07
2022-12-03T20:34:23.385Z,59.33
2022-12-03T20:36:50.392Z,62.63
2022-12-03T20:39:17.443Z,55.70
2022-12-03T20:41:44.464Z,59.87
2022-12-03T20:44:14.535Z,57.43
2022-12-03T20:46:41.556Z,59.83
2022-12-03T20:49:08.627Z,67.33
2022-12-03T20:51:39.157Z,57.60
2022-12-03T20:54:11.710Z,66.90
2022-12-03T20:56:42.058Z,59.60
2022-12-03T20:59:14.296Z,61.23
2022-12-03T21:01:43.276Z,57.87
2022-12-03T21:04:14.559Z,70.37
2022-12-03T21:06:44.185Z,58.73
2022-12-03T21:09:14.045Z,64.47
2022-12-03T21:11:42.501Z,60.47
2022-12-03T21:14:11.156Z,54.53
2022-12-03T21:17:06.609Z,66.53
2022-12-03T21:19:27.030Z,57.83
2022-12-03T21:21:53.997Z,63.63
2022-12-03T21:24:21.134Z,64.07
2022-12-03T21:26:50.207Z,66.80
2022-12-03T21:29:18.190Z,56.60
2022-12-03T21:31:45.198Z,66.63
2022-12-03T21:34:12.408Z,64.87
2022-12-03T21:36:40.137Z,59.50
2022-12-03T21:39:09.747Z,71.43
2022-12-03T21:41:37.503Z,59.00
2022-12-03T21:44:04.778Z,60.03
2022-12-03T21:47:11.763Z,58.73
2022-12-03T21:49:22.608Z,69.83
2022-12-03T21:51:49.784Z,70.07
2022-12-03T21:54:16.745Z,81.10
2022-12-03T21:56:48.321Z,66.23
2022-12-03T21:59:15.398Z,67.73
2022-12-03T22:01:46.907Z,71.43
2022-12-03T22:04:14.410Z,64.83
2022-12-03T22:06:41.590Z,64.03
2022-12-03T22:09:10.419Z,63.90
2022-12-03T22:11:39.847Z,61.27
2022-12-03T22:14:12.303Z,61.90
2022-12-03T22:16:42.120Z,62.13
2022-12-03T22:19:10.678Z,58.60
2022-12-03T22:21:37.827Z,63.90
2022-12-03T22:24:13.617Z,66.80
2022-12-03T22:26:43.253Z,60.70
2022-12-03T22:29:13.613Z,62.17
2022-12-03T22:31:40.586Z,69.00
2022-12-03T22:34:10.389Z,62.67
2022-12-03T22:36:38.088Z,67.00
2022-12-03T22:39:07.432Z,60.67
2022-12-03T22:41:34.500Z,65.40
2022-12-03T22:44:03.942Z,63.37
2022-12-03T22:46:33.677Z,61.97
2022-12-03T22:49:07.061Z,64.63
2022-12-03T22:51:37.168Z,58.47
2022-12-03T22:54:05.605Z,63.10
2022-12-03T22:56:33.007Z,64.00
2022-12-03T22:59:01.360Z,58.83
2022-12-03T23:01:38.514Z,62.30
2022-12-03T23:04:08.737Z,68.07
2022-12-03T23:06:37.107Z,61.80
2022-12-03T23:09:06.457Z,66.20
2022-12-03T23:11:34.117Z,66.97
2022-12-03T23:14:06.809Z,68.10
2022-12-03T23:16:34.271Z,63.87
2022-12-03T23:19:03.421Z,64.13
2022-12-03T23:21:36.660Z,68.10
2022-12-03T23:24:06.661Z,61.57
2022-12-03T23:26:40.786Z,68.23
2022-12-03T23:29:08.574Z,61.40
2022-12-03T23:31:36.328Z,65.90
2022-12-03T23:34:05.946Z,67.27
2022-12-03T23:36:37.811Z,62.20
2022-12-03T23:39:05.101Z,65.10
2022-12-03T23:41:32.243Z,64.97
2022-12-03T23:43:59.341Z,57.40
2022-12-03T23:46:28.378Z,60.40
2022-12-03T23:48:58.428Z,70.17
2022-12-03T23:51:26.641Z,66.53
2022-12-03T23:53:55.672Z,59.07
2022-12-03T23:56:29.631Z,65.77
2022-12-03T23:58:58.217Z,65.80
